createdAt,value
2018-07-30T00:02:02.877Z,59.00
2018-07-30T00:04:31.261Z,57.71
2018-07-30T00:06:59.705Z,58.80
2018-07-30T00:09:28.083Z,58.92
2018-07-30T00:11:56.500Z,58.37
2018-07-30T00:14:24.931Z,59.85
2018-07-30T00:16:53.369Z,59.88
2018-07-30T00:19:21.781Z,58.02
2018-07-30T00:21:50.275Z,57.74
2018-07-30T00:24:18.685Z,59.27
2018-07-30T00:26:47.152Z,59.94
2018-07-30T00:29:15.651Z,60.22
2018-07-30T00:31:44.088Z,60.44
2018-07-30T00:34:12.530Z,60.67
2018-07-30T00:36:40.971Z,61.26
2018-07-30T00:39:11.180Z,61.28
2018-07-30T00:41:39.929Z,61.30
2018-07-30T00:44:08.455Z,61.63
2018-07-30T00:46:37.506Z,62.41
2018-07-30T00:49:06.581Z,60.87
2018-07-30T00:51:34.960Z,60.91
2018-07-30T00:54:03.356Z,60.60
2018-07-30T00:56:31.772Z,63.13
2018-07-30T00:59:00.159Z,62.59
2018-07-30T01:01:28.610Z,62.69
2018-07-30T01:03:57.095Z,62.21
2018-07-30T01:06:25.586Z,62.52
2018-07-30T01:08:53.995Z,62.89
2018-07-30T01:11:22.425Z,63.29
2018-07-30T01:13:50.853Z,63.66
2018-07-30T01:16:19.396Z,63.25
2018-07-30T01:18:47.837Z,63.38
2018-07-30T01:21:16.226Z,63.55
2018-07-30T01:23:44.610Z,63.57
2018-07-30T01:26:18.331Z,64.27
2018-07-30T01:28:46.691Z,63.84
2018-07-30T01:31:15.095Z,64.49
2018-07-30T01:33:43.472Z,65.27
2018-07-30T01:36:11.927Z,65.02
2018-07-30T01:38:40.347Z,64.46
2018-07-30T01:41:08.796Z,65.57
2018-07-30T01:43:37.245Z,65.18
2018-07-30T01:46:05.879Z,66.14
2018-07-30T01:48:34.286Z,65.64
2018-07-30T01:51:02.666Z,64.62
2018-07-30T01:53:31.229Z,64.54
2018-07-30T01:55:59.941Z,63.08
2018-07-30T01:58:28.380Z,63.95
2018-07-30T02:00:56.786Z,64.84
2018-07-30T02:03:25.259Z,64.63
2018-07-30T02:05:53.770Z,66.23
2018-07-30T02:08:22.189Z,65.51
2018-07-30T02:10:50.645Z,65.72
2018-07-30T02:13:19.080Z,66.44
2018-07-30T02:15:47.473Z,66.15
2018-07-30T02:18:15.877Z,67.42
2018-07-30T02:20:44.291Z,66.23
2018-07-30T02:23:12.735Z,67.57
2018-07-30T02:25:41.097Z,66.62
2018-07-30T02:28:09.484Z,68.11
2018-07-30T02:30:37.988Z,67.56
2018-07-30T02:33:06.575Z,66.20
2018-07-30T02:35:34.993Z,66.82
2018-07-30T02:38:03.580Z,67.26
2018-07-30T02:40:32.045Z,67.74
2018-07-30T02:43:00.449Z,67.90
2018-07-30T02:45:28.933Z,67.83
2018-07-30T02:47:57.329Z,68.72
2018-07-30T02:50:25.757Z,69.13
2018-07-30T02:52:54.201Z,69.03
2018-07-30T02:55:22.643Z,69.97
2018-07-30T02:57:51.084Z,69.66
2018-07-30T03:00:19.474Z,66.94
2018-07-30T03:02:49.660Z,65.69
2018-07-30T03:05:19.061Z,65.73
2018-07-30T03:07:47.481Z,65.60
2018-07-30T03:10:15.925Z,67.11
2018-07-30T03:12:44.383Z,67.27
2018-07-30T03:15:12.880Z,68.23
2018-07-30T03:17:41.354Z,69.49
2018-07-30T03:20:10.440Z,69.60
2018-07-30T03:22:38.843Z,69.75
2018-07-30T03:25:07.714Z,69.43
2018-07-30T03:27:36.188Z,69.29
2018-07-30T03:30:06.368Z,69.85
2018-07-30T03:32:34.792Z,69.48
2018-07-30T03:35:03.303Z,69.44
2018-07-30T03:37:31.747Z,68.24
2018-07-30T03:40:00.130Z,68.77
2018-07-30T03:42:28.588Z,68.72
2018-07-30T03:44:56.993Z,67.90
2018-07-30T03:47:25.375Z,68.21
2018-07-30T03:49:53.840Z,66.19
2018-07-30T03:52:22.264Z,66.15
2018-07-30T03:54:50.687Z,67.72
2018-07-30T03:57:19.123Z,68.21
2018-07-30T03:59:47.540Z,67.95
2018-07-30T04:02:15.994Z,68.09
2018-07-30T04:04:44.391Z,68.65
2018-07-30T04:07:12.784Z,68.92
2018-07-30T04:09:41.190Z,68.52
2018-07-30T04:12:09.579Z,69.31
2018-07-30T04:14:37.944Z,68.51
2018-07-30T04:17:06.363Z,69.34
2018-07-30T04:19:34.740Z,69.54
2018-07-30T04:22:03.135Z,69.15
2018-07-30T04:24:31.508Z,69.66
2018-07-30T04:26:59.908Z,68.66
2018-07-30T04:29:28.357Z,69.91
2018-07-30T04:31:56.762Z,69.58
2018-07-30T04:34:25.157Z,70.44
2018-07-30T04:36:53.543Z,69.34
2018-07-30T04:39:21.943Z,69.92
2018-07-30T04:41:50.325Z,70.26
2018-07-30T04:44:18.754Z,70.07
2018-07-30T04:46:47.176Z,70.30
2018-07-30T04:49:15.654Z,68.70
2018-07-30T04:51:44.028Z,67.31
2018-07-30T04:54:12.452Z,68.09
2018-07-30T04:56:40.887Z,67.30
2018-07-30T04:59:09.270Z,67.14
2018-07-30T05:01:37.650Z,65.78
2018-07-30T05:04:06.184Z,66.50
2018-07-30T05:06:34.539Z,65.89
2018-07-30T05:09:03.071Z,65.59
2018-07-30T05:11:31.437Z,66.98
2018-07-30T05:13:59.828Z,65.97
2018-07-30T05:16:28.223Z,65.00
2018-07-30T05:18:56.590Z,65.12
2018-07-30T05:21:24.999Z,65.33
2018-07-30T05:23:53.436Z,66.13
2018-07-30T05:26:21.834Z,66.05
2018-07-30T05:28:50.291Z,66.46
2018-07-30T05:31:18.732Z,68.08
2018-07-30T05:33:47.163Z,67.26
2018-07-30T05:36:15.567Z,66.88
2018-07-30T05:38:43.951Z,66.27
2018-07-30T05:41:12.393Z,66.08
2018-07-30T05:43:40.765Z,67.21
2018-07-30T05:46:09.186Z,65.90
2018-07-30T05:48:37.600Z,65.45
2018-07-30T05:51:06.100Z,65.70
2018-07-30T05:53:34.557Z,63.94
2018-07-30T05:56:04.056Z,61.92
2018-07-30T05:58:32.523Z,63.09
2018-07-30T06:01:00.991Z,62.00
2018-07-30T06:03:29.461Z,58.80
2018-07-30T06:05:57.931Z,60.02
2018-07-30T06:08:26.352Z,57.99
2018-07-30T06:10:54.739Z,59.16
2018-07-30T06:13:23.162Z,60.24
2018-07-30T06:15:51.560Z,61.02
2018-07-30T06:18:19.960Z,59.87
2018-07-30T06:20:48.434Z,57.93
2018-07-30T06:23:16.831Z,57.32
2018-07-30T06:25:45.364Z,57.98
2018-07-30T06:28:13.783Z,58.73
2018-07-30T06:30:42.205Z,57.45
2018-07-30T06:33:10.617Z,58.72
2018-07-30T06:35:38.983Z,56.32
2018-07-30T06:38:07.373Z,56.55
2018-07-30T06:40:35.799Z,57.31
2018-07-30T06:43:04.254Z,57.00
2018-07-30T06:45:32.637Z,55.99
2018-07-30T06:48:01.171Z,56.51
2018-07-30T06:50:29.652Z,56.61
2018-07-30T06:52:58.095Z,57.21
2018-07-30T06:55:26.542Z,57.25
2018-07-30T06:57:54.980Z,56.76
2018-07-30T07:00:23.483Z,58.26
2018-07-30T07:02:51.932Z,57.73
2018-07-30T07:05:20.337Z,58.24
2018-07-30T07:07:48.762Z,57.56
2018-07-30T07:10:17.218Z,57.25
2018-07-30T07:12:45.688Z,56.62
2018-07-30T07:15:14.812Z,56.55
2018-07-30T07:17:44.376Z,56.27
2018-07-30T07:20:12.818Z,57.07
2018-07-30T07:22:41.232Z,57.27
2018-07-30T07:25:09.680Z,56.69
2018-07-30T07:27:38.159Z,57.20
2018-07-30T07:30:07.769Z,57.83
2018-07-30T07:32:36.272Z,57.43
2018-07-30T07:35:05.130Z,57.04
2018-07-30T07:37:33.472Z,57.45
2018-07-30T07:40:01.915Z,57.58
2018-07-30T07:42:30.329Z,57.60
2018-07-30T07:44:58.710Z,57.32
2018-07-30T07:47:27.153Z,56.33
2018-07-30T07:49:55.539Z,55.75
2018-07-30T07:52:24.005Z,56.30
2018-07-30T07:54:52.500Z,57.39
2018-07-30T07:57:21.050Z,57.13
2018-07-30T07:59:49.484Z,56.86
2018-07-30T08:02:17.917Z,57.09
2018-07-30T08:04:46.292Z,56.93
2018-07-30T08:07:14.726Z,56.79
2018-07-30T08:09:43.166Z,56.69
2018-07-30T08:12:11.718Z,56.09
2018-07-30T08:14:40.214Z,55.02
2018-07-30T08:17:08.624Z,56.64
2018-07-30T08:19:37.242Z,54.76
2018-07-30T08:22:05.735Z,56.56
2018-07-30T08:24:34.112Z,56.32
2018-07-30T08:27:02.580Z,55.13
2018-07-30T08:29:31.081Z,55.28
2018-07-30T08:31:59.570Z,55.70
2018-07-30T08:34:27.964Z,55.45
2018-07-30T08:36:56.362Z,55.60
2018-07-30T08:39:24.796Z,54.65
2018-07-30T08:41:53.234Z,54.53
2018-07-30T08:44:21.652Z,55.01
2018-07-30T08:46:50.053Z,53.03
2018-07-30T08:49:18.454Z,54.49
2018-07-30T08:51:46.910Z,54.17
2018-07-30T08:54:15.337Z,54.29
2018-07-30T08:56:43.845Z,54.96
2018-07-30T08:59:12.299Z,55.13
2018-07-30T09:01:40.717Z,55.02
2018-07-30T09:04:09.129Z,55.30
2018-07-30T09:06:37.538Z,55.72
2018-07-30T09:09:08.567Z,54.70
2018-07-30T09:11:37.200Z,53.54
2018-07-30T09:14:05.794Z,53.27
2018-07-30T09:16:34.208Z,53.10
2018-07-30T09:19:02.617Z,52.03
2018-07-30T09:21:31.111Z,52.67
2018-07-30T09:23:59.547Z,52.85
2018-07-30T09:26:27.933Z,52.42
2018-07-30T09:28:56.386Z,52.33
2018-07-30T09:31:24.791Z,52.45
2018-07-30T09:33:53.201Z,51.44
2018-07-30T09:36:23.441Z,52.10
2018-07-30T09:38:52.181Z,53.45
2018-07-30T09:41:20.691Z,52.27
2018-07-30T09:43:49.380Z,51.75
2018-07-30T09:46:18.148Z,51.21
2018-07-30T09:48:46.616Z,52.45
2018-07-30T09:51:15.043Z,52.03
2018-07-30T09:53:43.456Z,52.13
2018-07-30T09:56:11.991Z,51.99
2018-07-30T09:58:40.412Z,52.09
2018-07-30T10:01:14.059Z,49.75
2018-07-30T10:03:42.432Z,47.85
2018-07-30T10:06:11.217Z,48.62
2018-07-30T10:08:39.632Z,47.95
2018-07-30T10:11:08.043Z,47.54
2018-07-30T10:13:36.433Z,48.38
2018-07-30T10:16:04.940Z,49.27
2018-07-30T10:18:33.365Z,49.49
2018-07-30T10:21:01.824Z,49.17
2018-07-30T10:23:30.206Z,49.77
2018-07-30T10:25:58.595Z,49.63
2018-07-30T10:28:27.061Z,49.23
2018-07-30T10:30:55.474Z,48.87
2018-07-30T10:33:23.895Z,50.73
2018-07-30T10:35:52.312Z,49.59
2018-07-30T10:38:20.823Z,49.14
2018-07-30T10:40:49.207Z,49.35
2018-07-30T10:43:17.667Z,50.32
2018-07-30T10:45:46.028Z,49.97
2018-07-30T10:48:14.412Z,49.90
2018-07-30T10:50:42.812Z,49.42
2018-07-30T10:53:11.260Z,49.50
2018-07-30T10:55:39.721Z,48.86
2018-07-30T10:58:08.160Z,48.98
2018-07-30T11:00:36.603Z,48.78
2018-07-30T11:03:05.022Z,48.51
2018-07-30T11:05:33.415Z,48.46
2018-07-30T11:08:01.855Z,48.74
2018-07-30T11:10:30.261Z,48.43
2018-07-30T11:12:58.697Z,48.59
2018-07-30T11:15:27.152Z,47.49
2018-07-30T11:17:55.593Z,47.87
2018-07-30T11:20:24.092Z,48.68
2018-07-30T11:22:52.464Z,48.10
2018-07-30T11:25:20.955Z,47.84
2018-07-30T11:27:50.565Z,45.13
2018-07-30T11:30:18.993Z,46.10
2018-07-30T11:32:47.388Z,47.71
2018-07-30T11:35:15.783Z,47.78
2018-07-30T11:37:44.442Z,47.33
2018-07-30T11:40:12.880Z,46.68
2018-07-30T11:42:41.289Z,47.64
2018-07-30T11:45:09.801Z,47.61
2018-07-30T11:47:38.223Z,46.91
2018-07-30T11:50:06.715Z,47.29
2018-07-30T11:52:35.179Z,46.26
2018-07-30T11:55:03.662Z,46.03
2018-07-30T12:04:18.503Z,47.53
2018-07-30T12:06:46.966Z,47.77
2018-07-30T12:09:15.373Z,47.95
2018-07-30T12:11:43.836Z,44.55
2018-07-30T12:14:12.293Z,43.98
2018-07-30T12:16:40.683Z,43.90
2018-07-30T12:19:09.509Z,43.47
2018-07-30T12:21:38.663Z,42.85
2018-07-30T12:24:07.155Z,44.93
2018-07-30T12:26:35.523Z,45.55
2018-07-30T12:29:04.054Z,44.91
2018-07-30T12:31:32.484Z,44.67
2018-07-30T12:34:00.887Z,42.39
2018-07-30T12:36:29.320Z,42.09
2018-07-30T12:38:57.781Z,41.08
2018-07-30T12:41:26.203Z,40.06
2018-07-30T12:43:54.703Z,38.39
2018-07-30T12:49:09.725Z,40.75
2018-07-30T12:51:38.152Z,38.20
2018-07-30T12:54:06.573Z,40.19
2018-07-30T12:56:34.950Z,37.16
2018-07-30T12:59:03.386Z,39.64
2018-07-30T13:01:31.898Z,37.84
2018-07-30T13:04:00.336Z,40.39
2018-07-30T13:06:29.704Z,37.83
2018-07-30T13:08:58.096Z,39.42
2018-07-30T13:11:26.535Z,36.24
2018-07-30T13:13:54.962Z,36.16
2018-07-30T13:16:23.350Z,35.06
2018-07-30T13:18:51.753Z,36.68
2018-07-30T13:21:20.205Z,36.95
2018-07-30T13:23:48.622Z,34.89
2018-07-30T13:26:17.052Z,34.79
2018-07-30T13:28:45.502Z,36.10
2018-07-30T13:31:13.944Z,38.21
2018-07-30T13:33:42.324Z,37.97
2018-07-30T13:36:10.732Z,40.63
2018-07-30T13:38:39.152Z,33.92
2018-07-30T13:41:07.651Z,38.13
2018-07-30T13:43:36.101Z,36.45
2018-07-30T13:46:04.496Z,35.45
2018-07-30T13:48:32.986Z,38.91
2018-07-30T13:51:01.452Z,38.17
2018-07-30T13:53:29.956Z,37.78
2018-07-30T13:55:58.408Z,38.97
2018-07-30T13:58:28.033Z,37.58
2018-07-30T14:00:56.444Z,39.02
2018-07-30T14:03:24.996Z,36.39
2018-07-30T14:05:53.475Z,38.89
2018-07-30T14:08:22.090Z,36.32
2018-07-30T14:10:50.573Z,37.23
2018-07-30T14:13:19.013Z,38.32
2018-07-30T14:15:47.463Z,38.36
2018-07-30T14:18:15.871Z,35.25
2018-07-30T14:20:44.360Z,32.48
2018-07-30T14:23:12.814Z,31.21
2018-07-30T14:25:42.317Z,33.49
2018-07-30T14:28:10.797Z,34.90
2018-07-30T14:30:39.283Z,31.33
2018-07-30T14:33:07.648Z,31.31
2018-07-30T14:35:36.087Z,32.52
2018-07-30T14:38:04.534Z,33.29
2018-07-30T14:40:32.933Z,34.91
2018-07-30T14:43:01.377Z,33.91
2018-07-30T14:45:29.780Z,33.94
2018-07-30T14:47:58.260Z,31.54
2018-07-30T14:50:26.661Z,32.11
2018-07-30T14:52:55.117Z,33.08
2018-07-30T14:55:23.891Z,34.24
2018-07-30T14:57:52.724Z,32.22
2018-07-30T15:00:21.248Z,32.00
2018-07-30T15:02:49.665Z,32.08
2018-07-30T15:05:20.877Z,33.82
2018-07-30T15:07:49.885Z,32.14
2018-07-30T15:10:18.804Z,32.37
2018-07-30T15:12:47.239Z,33.85
2018-07-30T15:15:15.678Z,34.78
2018-07-30T15:17:44.114Z,33.93
2018-07-30T15:20:12.545Z,34.74
2018-07-30T15:22:41.010Z,34.97
2018-07-30T15:25:09.429Z,35.28
2018-07-30T15:27:37.883Z,36.64
2018-07-30T15:30:06.871Z,34.38
2018-07-30T15:32:35.320Z,33.83
2018-07-30T15:35:03.779Z,32.73
2018-07-30T15:37:33.085Z,33.50
2018-07-30T15:40:02.257Z,32.32
2018-07-30T15:42:30.645Z,33.21
2018-07-30T15:44:59.339Z,32.79
2018-07-30T15:47:27.725Z,33.15
2018-07-30T15:49:56.163Z,32.45
2018-07-30T15:52:25.594Z,32.12
2018-07-30T15:54:54.098Z,33.00
2018-07-30T15:57:22.525Z,33.81
2018-07-30T15:59:50.921Z,31.60
2018-07-30T16:02:19.364Z,32.04
2018-07-30T16:04:47.781Z,34.05
2018-07-30T16:07:16.180Z,34.17
2018-07-30T16:09:45.285Z,30.71
2018-07-30T16:12:13.670Z,32.31
2018-07-30T16:14:42.103Z,32.95
2018-07-30T16:17:10.512Z,32.62
2018-07-30T16:19:39.008Z,30.13
2018-07-30T16:22:07.516Z,31.67
2018-07-30T16:24:35.953Z,32.52
2018-07-30T16:27:05.405Z,33.85
2018-07-30T16:29:34.323Z,32.68
2018-07-30T16:32:02.758Z,32.93
2018-07-30T16:34:31.831Z,31.30
2018-07-30T16:37:00.239Z,31.17
2018-07-30T16:39:28.684Z,33.51
2018-07-30T16:41:57.127Z,34.03
2018-07-30T16:44:26.222Z,33.67
2018-07-30T16:46:55.256Z,35.99
2018-07-30T16:49:23.663Z,33.24
2018-07-30T16:51:52.161Z,31.28
2018-07-30T16:54:20.567Z,31.61
2018-07-30T16:56:49.062Z,32.25
2018-07-30T16:59:17.987Z,31.14
2018-07-30T17:01:46.477Z,34.47
2018-07-30T17:04:14.859Z,31.99
2018-07-30T17:06:43.749Z,30.65
2018-07-30T17:09:12.888Z,33.03
2018-07-30T17:11:41.574Z,30.52
2018-07-30T17:14:09.983Z,32.17
2018-07-30T17:16:38.440Z,31.65
2018-07-30T17:19:07.008Z,30.87
2018-07-30T17:21:35.489Z,30.97
2018-07-30T17:24:03.946Z,33.25
2018-07-30T17:26:32.525Z,30.53
2018-07-30T17:29:00.948Z,34.38
2018-07-30T17:31:29.428Z,35.17
2018-07-30T17:33:58.263Z,31.81
2018-07-30T17:36:27.058Z,32.50
2018-07-30T17:38:55.871Z,32.29
2018-07-30T17:41:24.352Z,32.00
2018-07-30T17:43:54.488Z,31.10
2018-07-30T17:46:23.221Z,31.44
2018-07-30T17:48:51.848Z,32.95
2018-07-30T17:51:20.314Z,31.22
2018-07-30T17:53:48.780Z,32.03
2018-07-30T17:56:17.907Z,32.12
2018-07-30T17:58:46.377Z,34.19
2018-07-30T18:01:14.974Z,32.92
2018-07-30T18:03:43.412Z,31.37
2018-07-30T18:06:12.135Z,31.44
2018-07-30T18:08:40.549Z,33.10
2018-07-30T18:11:09.178Z,31.54
2018-07-30T18:13:37.585Z,33.49
2018-07-30T18:16:06.151Z,32.73
2018-07-30T18:18:34.578Z,33.23
2018-07-30T18:21:03.600Z,32.26
2018-07-30T18:23:32.018Z,32.38
2018-07-30T18:26:00.454Z,35.95
2018-07-30T18:28:28.890Z,32.61
2018-07-30T18:30:58.924Z,33.79
2018-07-30T18:33:27.356Z,33.50
2018-07-30T18:35:56.438Z,34.33
2018-07-30T18:38:24.920Z,34.22
2018-07-30T18:40:53.403Z,33.27
2018-07-30T18:43:21.995Z,32.49
2018-07-30T18:45:50.416Z,34.38
2018-07-30T18:48:18.868Z,34.30
2018-07-30T18:50:47.449Z,38.22
2018-07-30T18:53:15.911Z,40.16
2018-07-30T18:55:44.323Z,42.31
2018-07-30T18:58:12.811Z,38.06
2018-07-30T19:00:41.304Z,39.23
2018-07-30T19:03:09.995Z,39.48
2018-07-30T19:05:38.571Z,41.13
2018-07-30T19:08:07.119Z,40.63
2018-07-30T19:10:36.588Z,42.14
2018-07-30T19:13:05.142Z,42.62
2018-07-30T19:15:33.891Z,44.04
2018-07-30T19:18:02.407Z,43.66
2018-07-30T19:20:31.160Z,43.46
2018-07-30T19:22:59.654Z,44.65
2018-07-30T19:25:28.092Z,43.98
2018-07-30T19:27:56.557Z,44.52
2018-07-30T19:30:25.243Z,45.38
2018-07-30T19:32:53.990Z,46.81
2018-07-30T19:35:23.669Z,47.99
2018-07-30T19:37:53.123Z,48.15
2018-07-30T19:40:22.183Z,48.71
2018-07-30T19:42:50.764Z,49.45
2018-07-30T19:45:19.433Z,48.54
2018-07-30T19:47:48.237Z,50.48
2018-07-30T19:50:17.013Z,50.10
2018-07-30T19:52:45.497Z,50.91
2018-07-30T19:55:14.213Z,50.02
2018-07-30T19:57:44.051Z,50.54
2018-07-30T20:00:12.456Z,50.73
2018-07-30T20:02:41.428Z,51.82
2018-07-30T20:05:10.192Z,52.18
2018-07-30T20:07:38.936Z,53.17
2018-07-30T20:10:07.741Z,53.80
2018-07-30T20:12:38.080Z,53.38
2018-07-30T20:15:08.723Z,52.95
2018-07-30T20:17:37.218Z,53.51
2018-07-30T20:20:07.852Z,53.01
2018-07-30T20:22:36.616Z,53.46
2018-07-30T20:25:05.633Z,54.11
2018-07-30T20:27:34.134Z,53.94
2018-07-30T20:30:02.881Z,53.84
2018-07-30T20:32:31.337Z,54.18
2018-07-30T20:34:59.991Z,54.61
2018-07-30T20:37:28.719Z,55.00
2018-07-30T20:39:57.141Z,55.39
2018-07-30T20:42:25.702Z,55.56
2018-07-30T20:44:54.155Z,55.19
2018-07-30T20:47:23.073Z,54.62
2018-07-30T20:49:51.540Z,55.57
2018-07-30T20:52:20.007Z,56.53
2018-07-30T20:54:48.704Z,55.54
2018-07-30T20:57:17.303Z,56.59
2018-07-30T20:59:47.162Z,56.09
2018-07-30T21:02:15.571Z,55.31
2018-07-30T21:04:43.992Z,56.04
2018-07-30T21:07:12.443Z,55.73
2018-07-30T21:09:40.882Z,56.45
2018-07-30T21:12:09.361Z,56.21
2018-07-30T21:14:37.802Z,56.49
2018-07-30T21:17:06.292Z,57.25
2018-07-30T21:19:34.765Z,57.49
2018-07-30T21:22:03.216Z,57.84
2018-07-30T21:24:31.581Z,58.57
2018-07-30T21:27:00.091Z,59.19
2018-07-30T21:29:28.460Z,58.76
2018-07-30T21:31:56.884Z,57.68
2018-07-30T21:34:25.412Z,57.90
2018-07-30T21:36:53.980Z,58.18
2018-07-30T21:39:22.447Z,58.20
2018-07-30T21:41:50.924Z,58.74
2018-07-30T21:44:19.368Z,58.62
2018-07-30T21:46:47.767Z,59.34
2018-07-30T21:49:16.210Z,58.43
2018-07-30T21:51:44.929Z,59.35
2018-07-30T21:54:13.339Z,58.35
2018-07-30T21:56:41.775Z,57.68
2018-07-30T21:59:10.233Z,58.60
2018-07-30T22:01:39.051Z,58.72
2018-07-30T22:04:07.541Z,59.66
2018-07-30T22:06:37.299Z,58.23
2018-07-30T22:09:08.164Z,57.66
2018-07-30T22:11:36.761Z,57.57
2018-07-30T22:14:05.432Z,57.87
2018-07-30T22:16:33.890Z,58.08
2018-07-30T22:19:02.333Z,58.77
2018-07-30T22:21:30.765Z,58.70
2018-07-30T22:23:59.196Z,59.64
2018-07-30T22:26:27.623Z,59.39
2018-07-30T22:28:56.100Z,59.20
2018-07-30T22:31:24.546Z,58.52
2018-07-30T22:33:53.001Z,58.95
2018-07-30T22:36:21.432Z,58.84
2018-07-30T22:38:49.808Z,59.81
2018-07-30T22:41:18.312Z,60.28
2018-07-30T22:43:46.748Z,60.48
2018-07-30T22:46:15.171Z,59.90
2018-07-30T22:48:43.584Z,59.61
2018-07-30T22:51:12.065Z,60.39
2018-07-30T22:53:40.496Z,61.25
2018-07-30T22:56:08.948Z,61.33
2018-07-30T22:58:37.399Z,61.84
2018-07-30T23:01:05.772Z,61.46
2018-07-30T23:03:34.305Z,61.38
2018-07-30T23:06:02.717Z,60.75
2018-07-30T23:08:31.133Z,61.79
2018-07-30T23:10:59.500Z,61.23
2018-07-30T23:13:27.928Z,60.73
2018-07-30T23:15:56.295Z,61.47
2018-07-30T23:18:24.750Z,61.47
2018-07-30T23:20:53.136Z,62.24
2018-07-30T23:23:22.297Z,62.86
2018-07-30T23:25:50.740Z,61.96
2018-07-30T23:28:19.236Z,61.66
2018-07-30T23:30:47.641Z,62.21
2018-07-30T23:33:16.022Z,62.71
2018-07-30T23:35:44.439Z,61.93
2018-07-30T23:38:12.848Z,61.78
2018-07-30T23:40:41.244Z,62.41
2018-07-30T23:43:09.597Z,62.45
2018-07-30T23:45:38.009Z,63.38
2018-07-30T23:48:06.413Z,63.64
2018-07-30T23:50:34.809Z,63.29
2018-07-30T23:53:03.157Z,65.08
2018-07-30T23:55:31.599Z,64.04
2018-07-30T23:57:59.986Z,63.96
